sensor_id;sensor_type;location;lat;lon;timestamp;temperature;humidity
12815;DHT22;6472;52.328;13.070;2022-11-15T00:01:15;1.70;99.90
12815;DHT22;6472;52.328;13.070;2022-11-15T00:03:44;1.70;99.90
12815;DHT22;6472;52.328;13.070;2022-11-15T00:06:13;1.70;99.90
12815;DHT22;6472;52.328;13.070;2022-11-15T00:08:41;1.60;99.90
12815;DHT22;6472;52.328;13.070;2022-11-15T00:11:11;1.60;99.90
12815;DHT22;6472;52.328;13.070;2022-11-15T00:13:40;1.50;99.90
12815;DHT22;6472;52.328;13.070;2022-11-15T00:16:10;1.50;99.90
12815;DHT22;6472;52.328;13.070;2022-11-15T00:18:38;1.50;99.90
12815;DHT22;6472;52.328;13.070;2022-11-15T00:21:07;1.40;99.90
12815;DHT22;6472;52.328;13.070;2022-11-15T00:23:36;1.40;99.90
12815;DHT22;6472;52.328;13.070;2022-11-15T00:26:04;1.30;99.90
12815;DHT22;6472;52.328;13.070;2022-11-15T00:28:32;1.30;99.90
12815;DHT22;6472;52.328;13.070;2022-11-15T00:31:01;1.30;99.90
12815;DHT22;6472;52.328;13.070;2022-11-15T00:33:31;1.30;99.90
12815;DHT22;6472;52.328;13.070;2022-11-15T00:36:01;1.30;99.90
12815;DHT22;6472;52.328;13.070;2022-11-15T00:38:31;1.30;99.90
12815;DHT22;6472;52.328;13.070;2022-11-15T00:41:01;1.20;99.90
12815;DHT22;6472;52.328;13.070;2022-11-15T00:43:35;1.20;99.90
12815;DHT22;6472;52.328;13.070;2022-11-15T00:46:03;1.20;99.90
12815;DHT22;6472;52.328;13.070;2022-11-15T00:48:32;1.20;99.90
12815;DHT22;6472;52.328;13.070;2022-11-15T00:51:00;1.20;99.90
12815;DHT22;6472;52.328;13.070;2022-11-15T00:53:28;1.10;99.90
12815;DHT22;6472;52.328;13.070;2022-11-15T00:55:57;1.10;99.90
12815;DHT22;6472;52.328;13.070;2022-11-15T00:58:25;1.10;99.90
12815;DHT22;6472;52.328;13.070;2022-11-15T01:00:53;1.10;99.90
12815;DHT22;6472;52.328;13.070;2022-11-15T01:03:21;1.10;99.90
12815;DHT22;6472;52.328;13.070;2022-11-15T01:05:51;1.10;99.90
12815;DHT22;6472;52.328;13.070;2022-11-15T01:08:19;1.10;99.90
12815;DHT22;6472;52.328;13.070;2022-11-15T01:10:47;1.00;99.90
12815;DHT22;6472;52.328;13.070;2022-11-15T01:13:15;1.00;99.90
12815;DHT22;6472;52.328;13.070;2022-11-15T01:15:43;1.10;99.90
12815;DHT22;6472;52.328;13.070;2022-11-15T01:18:11;1.10;99.90
12815;DHT22;6472;52.328;13.070;2022-11-15T01:20:40;1.10;99.90
12815;DHT22;6472;52.328;13.070;2022-11-15T01:23:10;1.10;99.90
12815;DHT22;6472;52.328;13.070;2022-11-15T01:25:38;1.10;99.90
12815;DHT22;6472;52.328;13.070;2022-11-15T01:28:06;1.10;99.90
12815;DHT22;6472;52.328;13.070;2022-11-15T01:30:35;1.20;99.90
12815;DHT22;6472;52.328;13.070;2022-11-15T01:33:04;1.20;99.90
12815;DHT22;6472;52.328;13.070;2022-11-15T01:35:32;1.20;99.90
12815;DHT22;6472;52.328;13.070;2022-11-15T01:38:00;1.20;99.90
12815;DHT22;6472;52.328;13.070;2022-11-15T01:40:29;1.30;99.90
12815;DHT22;6472;52.328;13.070;2022-11-15T01:42:57;1.30;99.90
12815;DHT22;6472;52.328;13.070;2022-11-15T01:45:26;1.40;99.90
12815;DHT22;6472;52.328;13.070;2022-11-15T01:47:54;1.30;99.90
12815;DHT22;6472;52.328;13.070;2022-11-15T01:50:26;1.40;99.90
12815;DHT22;6472;52.328;13.070;2022-11-15T01:52:56;1.40;99.90
12815;DHT22;6472;52.328;13.070;2022-11-15T01:55:26;1.40;99.90
12815;DHT22;6472;52.328;13.070;2022-11-15T01:57:59;1.50;99.90
12815;DHT22;6472;52.328;13.070;2022-11-15T02:00:28;1.50;99.90
12815;DHT22;6472;52.328;13.070;2022-11-15T02:02:56;1.50;99.90
12815;DHT22;6472;52.328;13.070;2022-11-15T02:05:25;1.50;99.90
12815;DHT22;6472;52.328;13.070;2022-11-15T02:07:53;1.50;99.90
12815;DHT22;6472;52.328;13.070;2022-11-15T02:10:23;1.50;99.90
12815;DHT22;6472;52.328;13.070;2022-11-15T02:12:52;1.50;99.90
12815;DHT22;6472;52.328;13.070;2022-11-15T02:15:24;1.40;99.90
12815;DHT22;6472;52.328;13.070;2022-11-15T02:18:07;1.40;99.90
12815;DHT22;6472;52.328;13.070;2022-11-15T02:21:07;1.40;99.90
12815;DHT22;6472;52.328;13.070;2022-11-15T02:30:16;1.30;99.90
12815;DHT22;6472;52.328;13.070;2022-11-15T02:32:49;1.40;99.90
12815;DHT22;6472;52.328;13.070;2022-11-15T02:35:24;1.40;99.90
12815;DHT22;6472;52.328;13.070;2022-11-15T02:37:58;1.30;99.90
12815;DHT22;6472;52.328;13.070;2022-11-15T02:40:34;1.30;99.90
12815;DHT22;6472;52.328;13.070;2022-11-15T02:43:08;1.30;99.90
12815;DHT22;6472;52.328;13.070;2022-11-15T02:46:09;1.40;99.90
12815;DHT22;6472;52.328;13.070;2022-11-15T02:48:41;1.30;99.90
12815;DHT22;6472;52.328;13.070;2022-11-15T02:51:11;1.30;99.90
12815;DHT22;6472;52.328;13.070;2022-11-15T02:53:41;1.30;99.90
12815;DHT22;6472;52.328;13.070;2022-11-15T02:56:09;1.30;99.90
12815;DHT22;6472;52.328;13.070;2022-11-15T02:58:57;1.30;99.90
12815;DHT22;6472;52.328;13.070;2022-11-15T03:01:37;1.30;99.90
12815;DHT22;6472;52.328;13.070;2022-11-15T03:04:15;1.30;99.90
12815;DHT22;6472;52.328;13.070;2022-11-15T03:06:53;1.20;99.90
12815;DHT22;6472;52.328;13.070;2022-11-15T03:09:30;1.30;99.90
12815;DHT22;6472;52.328;13.070;2022-11-15T03:12:04;1.30;99.90
12815;DHT22;6472;52.328;13.070;2022-11-15T03:14:37;1.30;99.90
12815;DHT22;6472;52.328;13.070;2022-11-15T03:17:15;1.30;99.90
12815;DHT22;6472;52.328;13.070;2022-11-15T03:19:46;1.30;99.90
12815;DHT22;6472;52.328;13.070;2022-11-15T03:22:16;1.30;99.90
12815;DHT22;6472;52.328;13.070;2022-11-15T03:24:48;1.30;99.90
12815;DHT22;6472;52.328;13.070;2022-11-15T03:27:23;1.40;99.90
12815;DHT22;6472;52.328;13.070;2022-11-15T03:29:54;1.30;99.90
12815;DHT22;6472;52.328;13.070;2022-11-15T03:32:28;1.30;99.90
12815;DHT22;6472;52.328;13.070;2022-11-15T03:34:58;1.30;99.90
12815;DHT22;6472;52.328;13.070;2022-11-15T03:37:32;1.30;99.90
12815;DHT22;6472;52.328;13.070;2022-11-15T03:40:03;1.30;99.90
12815;DHT22;6472;52.328;13.070;2022-11-15T03:42:34;1.30;99.90
12815;DHT22;6472;52.328;13.070;2022-11-15T03:45:12;1.30;99.90
12815;DHT22;6472;52.328;13.070;2022-11-15T03:47:47;1.30;99.90
12815;DHT22;6472;52.328;13.070;2022-11-15T03:50:19;1.30;99.90
12815;DHT22;6472;52.328;13.070;2022-11-15T03:52:48;1.30;99.90
12815;DHT22;6472;52.328;13.070;2022-11-15T03:55:19;1.30;99.90
12815;DHT22;6472;52.328;13.070;2022-11-15T03:57:50;1.30;99.90
12815;DHT22;6472;52.328;13.070;2022-11-15T04:00:18;1.30;99.90
12815;DHT22;6472;52.328;13.070;2022-11-15T04:02:48;1.30;99.90
12815;DHT22;6472;52.328;13.070;2022-11-15T04:05:16;1.30;99.90
12815;DHT22;6472;52.328;13.070;2022-11-15T04:07:44;1.30;99.90
12815;DHT22;6472;52.328;13.070;2022-11-15T04:10:13;1.20;99.90
12815;DHT22;6472;52.328;13.070;2022-11-15T04:12:42;1.30;99.90
12815;DHT22;6472;52.328;13.070;2022-11-15T04:15:15;1.20;99.90
12815;DHT22;6472;52.328;13.070;2022-11-15T04:17:44;1.20;99.90
12815;DHT22;6472;52.328;13.070;2022-11-15T04:20:16;1.20;99.90
12815;DHT22;6472;52.328;13.070;2022-11-15T04:23:04;1.30;99.90
12815;DHT22;6472;52.328;13.070;2022-11-15T04:25:51;1.30;99.90
12815;DHT22;6472;52.328;13.070;2022-11-15T04:28:20;1.30;99.90
12815;DHT22;6472;52.328;13.070;2022-11-15T04:30:48;1.30;99.90
12815;DHT22;6472;52.328;13.070;2022-11-15T04:33:16;1.20;99.90
12815;DHT22;6472;52.328;13.070;2022-11-15T04:35:46;1.20;99.90
12815;DHT22;6472;52.328;13.070;2022-11-15T04:38:34;1.20;99.90
12815;DHT22;6472;52.328;13.070;2022-11-15T04:41:02;1.20;99.90
12815;DHT22;6472;52.328;13.070;2022-11-15T04:43:30;1.10;99.90
12815;DHT22;6472;52.328;13.070;2022-11-15T04:45:59;1.10;99.90
12815;DHT22;6472;52.328;13.070;2022-11-15T04:48:27;1.10;99.90
12815;DHT22;6472;52.328;13.070;2022-11-15T04:50:56;1.10;99.90
12815;DHT22;6472;52.328;13.070;2022-11-15T04:53:24;1.10;99.90
12815;DHT22;6472;52.328;13.070;2022-11-15T04:55:52;1.10;99.90
12815;DHT22;6472;52.328;13.070;2022-11-15T04:58:20;1.10;99.90
12815;DHT22;6472;52.328;13.070;2022-11-15T05:00:48;1.10;99.90
12815;DHT22;6472;52.328;13.070;2022-11-15T05:03:16;1.10;99.90
12815;DHT22;6472;52.328;13.070;2022-11-15T05:06:04;1.10;99.90
12815;DHT22;6472;52.328;13.070;2022-11-15T05:08:33;1.10;99.90
12815;DHT22;6472;52.328;13.070;2022-11-15T05:11:01;1.10;99.90
12815;DHT22;6472;52.328;13.070;2022-11-15T05:13:29;1.10;99.90
12815;DHT22;6472;52.328;13.070;2022-11-15T05:15:57;1.10;99.90
12815;DHT22;6472;52.328;13.070;2022-11-15T05:18:25;1.00;99.90
12815;DHT22;6472;52.328;13.070;2022-11-15T05:20:54;1.00;99.90
12815;DHT22;6472;52.328;13.070;2022-11-15T05:23:23;1.00;99.90
12815;DHT22;6472;52.328;13.070;2022-11-15T05:25:51;0.90;99.90
12815;DHT22;6472;52.328;13.070;2022-11-15T05:28:19;1.00;99.90
12815;DHT22;6472;52.328;13.070;2022-11-15T05:30:48;1.00;99.90
12815;DHT22;6472;52.328;13.070;2022-11-15T05:33:16;1.00;99.90
12815;DHT22;6472;52.328;13.070;2022-11-15T05:35:48;1.00;99.90
12815;DHT22;6472;52.328;13.070;2022-11-15T05:38:18;1.00;99.90
12815;DHT22;6472;52.328;13.070;2022-11-15T05:40:48;1.00;99.90
12815;DHT22;6472;52.328;13.070;2022-11-15T05:43:16;1.00;99.90
12815;DHT22;6472;52.328;13.070;2022-11-15T05:45:44;0.90;99.90
12815;DHT22;6472;52.328;13.070;2022-11-15T05:48:13;0.90;99.90
12815;DHT22;6472;52.328;13.070;2022-11-15T05:50:43;0.90;99.90
12815;DHT22;6472;52.328;13.070;2022-11-15T05:53:14;0.90;99.90
12815;DHT22;6472;52.328;13.070;2022-11-15T05:55:42;0.90;99.90
12815;DHT22;6472;52.328;13.070;2022-11-15T05:58:12;0.90;99.90
12815;DHT22;6472;52.328;13.070;2022-11-15T06:00:40;0.90;99.90
12815;DHT22;6472;52.328;13.070;2022-11-15T06:03:09;0.90;99.90
12815;DHT22;6472;52.328;13.070;2022-11-15T06:05:38;0.90;99.90
12815;DHT22;6472;52.328;13.070;2022-11-15T06:08:06;0.90;99.90
12815;DHT22;6472;52.328;13.070;2022-11-15T06:10:34;0.90;99.90
12815;DHT22;6472;52.328;13.070;2022-11-15T06:13:04;0.90;99.90
12815;DHT22;6472;52.328;13.070;2022-11-15T06:15:33;0.90;99.90
12815;DHT22;6472;52.328;13.070;2022-11-15T06:18:02;1.00;99.90
12815;DHT22;6472;52.328;13.070;2022-11-15T06:20:30;1.00;99.90
12815;DHT22;6472;52.328;13.070;2022-11-15T06:22:59;1.00;99.90
12815;DHT22;6472;52.328;13.070;2022-11-15T06:25:28;0.90;99.90
12815;DHT22;6472;52.328;13.070;2022-11-15T06:27:58;0.90;99.90
12815;DHT22;6472;52.328;13.070;2022-11-15T06:30:27;0.90;99.90
12815;DHT22;6472;52.328;13.070;2022-11-15T06:33:04;0.90;99.90
12815;DHT22;6472;52.328;13.070;2022-11-15T06:35:34;1.00;99.90
12815;DHT22;6472;52.328;13.070;2022-11-15T06:38:03;1.00;99.90
12815;DHT22;6472;52.328;13.070;2022-11-15T06:40:33;1.00;99.90
12815;DHT22;6472;52.328;13.070;2022-11-15T06:43:02;1.10;99.90
12815;DHT22;6472;52.328;13.070;2022-11-15T06:45:30;1.10;99.90
12815;DHT22;6472;52.328;13.070;2022-11-15T06:47:59;1.10;99.90
12815;DHT22;6472;52.328;13.070;2022-11-15T06:50:28;1.10;99.90
12815;DHT22;6472;52.328;13.070;2022-11-15T06:53:01;1.20;99.90
12815;DHT22;6472;52.328;13.070;2022-11-15T06:55:29;1.20;99.90
12815;DHT22;6472;52.328;13.070;2022-11-15T06:57:57;1.30;99.90
12815;DHT22;6472;52.328;13.070;2022-11-15T07:00:25;1.20;99.90
12815;DHT22;6472;52.328;13.070;2022-11-15T07:02:53;1.30;99.90
12815;DHT22;6472;52.328;13.070;2022-11-15T07:05:21;1.30;99.90
12815;DHT22;6472;52.328;13.070;2022-11-15T07:07:55;1.40;99.90
12815;DHT22;6472;52.328;13.070;2022-11-15T07:10:24;1.40;99.90
12815;DHT22;6472;52.328;13.070;2022-11-15T07:12:53;1.50;99.90
12815;DHT22;6472;52.328;13.070;2022-11-15T07:15:23;1.50;99.90
12815;DHT22;6472;52.328;13.070;2022-11-15T07:17:51;1.50;99.90
12815;DHT22;6472;52.328;13.070;2022-11-15T07:20:20;1.50;99.90
12815;DHT22;6472;52.328;13.070;2022-11-15T07:22:48;1.60;99.90
12815;DHT22;6472;52.328;13.070;2022-11-15T07:25:17;1.60;99.90
12815;DHT22;6472;52.328;13.070;2022-11-15T07:27:54;1.60;99.90
12815;DHT22;6472;52.328;13.070;2022-11-15T07:30:23;1.70;99.90
12815;DHT22;6472;52.328;13.070;2022-11-15T07:32:53;1.70;99.90
12815;DHT22;6472;52.328;13.070;2022-11-15T07:35:21;1.80;99.90
12815;DHT22;6472;52.328;13.070;2022-11-15T07:37:54;1.80;99.90
12815;DHT22;6472;52.328;13.070;2022-11-15T07:40:24;1.90;99.90
12815;DHT22;6472;52.328;13.070;2022-11-15T07:42:52;2.00;99.90
12815;DHT22;6472;52.328;13.070;2022-11-15T07:45:21;2.10;99.90
12815;DHT22;6472;52.328;13.070;2022-11-15T07:47:49;2.10;99.90
12815;DHT22;6472;52.328;13.070;2022-11-15T07:50:17;2.20;99.90
12815;DHT22;6472;52.328;13.070;2022-11-15T07:52:45;2.20;99.90
12815;DHT22;6472;52.328;13.070;2022-11-15T07:55:14;2.30;99.90
12815;DHT22;6472;52.328;13.070;2022-11-15T07:57:43;2.40;99.90
12815;DHT22;6472;52.328;13.070;2022-11-15T08:00:13;2.40;99.90
12815;DHT22;6472;52.328;13.070;2022-11-15T08:02:41;2.50;99.90
12815;DHT22;6472;52.328;13.070;2022-11-15T08:05:09;2.50;99.90
12815;DHT22;6472;52.328;13.070;2022-11-15T08:07:37;2.60;99.90
12815;DHT22;6472;52.328;13.070;2022-11-15T08:10:07;2.70;99.90
12815;DHT22;6472;52.328;13.070;2022-11-15T08:12:36;2.80;99.90
12815;DHT22;6472;52.328;13.070;2022-11-15T08:15:06;2.90;99.90
12815;DHT22;6472;52.328;13.070;2022-11-15T08:17:34;3.10;99.90
12815;DHT22;6472;52.328;13.070;2022-11-15T08:20:02;3.30;99.90
12815;DHT22;6472;52.328;13.070;2022-11-15T08:22:32;3.60;99.90
12815;DHT22;6472;52.328;13.070;2022-11-15T08:25:00;3.80;99.90
12815;DHT22;6472;52.328;13.070;2022-11-15T08:27:28;4.10;99.90
12815;DHT22;6472;52.328;13.070;2022-11-15T08:29:57;4.30;99.90
12815;DHT22;6472;52.328;13.070;2022-11-15T08:32:26;4.70;99.90
12815;DHT22;6472;52.328;13.070;2022-11-15T08:34:55;5.10;99.90
12815;DHT22;6472;52.328;13.070;2022-11-15T08:37:23;5.30;99.90
12815;DHT22;6472;52.328;13.070;2022-11-15T08:39:51;5.70;99.90
12815;DHT22;6472;52.328;13.070;2022-11-15T08:42:19;6.00;99.90
12815;DHT22;6472;52.328;13.070;2022-11-15T08:44:47;6.20;99.90
12815;DHT22;6472;52.328;13.070;2022-11-15T08:47:15;6.40;99.90
12815;DHT22;6472;52.328;13.070;2022-11-15T08:49:45;6.60;99.90
12815;DHT22;6472;52.328;13.070;2022-11-15T08:52:14;6.80;99.90
12815;DHT22;6472;52.328;13.070;2022-11-15T08:54:41;7.00;99.90
12815;DHT22;6472;52.328;13.070;2022-11-15T08:57:09;7.20;99.90
12815;DHT22;6472;52.328;13.070;2022-11-15T08:59:37;7.30;99.90
12815;DHT22;6472;52.328;13.070;2022-11-15T09:02:05;7.50;99.90
12815;DHT22;6472;52.328;13.070;2022-11-15T09:04:34;7.60;99.90
12815;DHT22;6472;52.328;13.070;2022-11-15T09:07:03;7.80;99.90
12815;DHT22;6472;52.328;13.070;2022-11-15T09:09:32;7.90;99.90
12815;DHT22;6472;52.328;13.070;2022-11-15T09:12:00;8.10;99.90
12815;DHT22;6472;52.328;13.070;2022-11-15T09:14:28;8.20;99.90
12815;DHT22;6472;52.328;13.070;2022-11-15T09:16:56;8.30;99.90
12815;DHT22;6472;52.328;13.070;2022-11-15T09:19:25;8.50;99.90
12815;DHT22;6472;52.328;13.070;2022-11-15T09:21:53;8.50;99.90
12815;DHT22;6472;52.328;13.070;2022-11-15T09:24:22;8.70;99.90
12815;DHT22;6472;52.328;13.070;2022-11-15T09:26:51;8.80;99.90
12815;DHT22;6472;52.328;13.070;2022-11-15T09:29:19;8.90;99.90
12815;DHT22;6472;52.328;13.070;2022-11-15T09:31:47;9.00;99.90
12815;DHT22;6472;52.328;13.070;2022-11-15T09:34:15;9.00;99.90
12815;DHT22;6472;52.328;13.070;2022-11-15T09:36:43;9.10;99.90
12815;DHT22;6472;52.328;13.070;2022-11-15T09:39:11;9.10;99.90
12815;DHT22;6472;52.328;13.070;2022-11-15T09:42:02;9.30;99.90
12815;DHT22;6472;52.328;13.070;2022-11-15T09:44:56;9.40;99.90
12815;DHT22;6472;52.328;13.070;2022-11-15T09:47:46;9.50;99.90
12815;DHT22;6472;52.328;13.070;2022-11-15T09:50:20;9.60;99.90
12815;DHT22;6472;52.328;13.070;2022-11-15T09:52:50;9.80;99.90
12815;DHT22;6472;52.328;13.070;2022-11-15T09:55:18;9.90;99.90
12815;DHT22;6472;52.328;13.070;2022-11-15T09:57:54;10.00;99.90
12815;DHT22;6472;52.328;13.070;2022-11-15T10:00:31;10.10;99.90
12815;DHT22;6472;52.328;13.070;2022-11-15T10:03:19;10.20;99.90
12815;DHT22;6472;52.328;13.070;2022-11-15T10:05:53;10.20;99.90
12815;DHT22;6472;52.328;13.070;2022-11-15T10:08:47;10.20;99.90
12815;DHT22;6472;52.328;13.070;2022-11-15T10:11:19;10.20;99.90
12815;DHT22;6472;52.328;13.070;2022-11-15T10:14:08;10.30;99.90
12815;DHT22;6472;52.328;13.070;2022-11-15T10:17:17;10.20;99.90
12815;DHT22;6472;52.328;13.070;2022-11-15T10:19:55;10.20;99.90
12815;DHT22;6472;52.328;13.070;2022-11-15T10:22:37;10.20;99.90
12815;DHT22;6472;52.328;13.070;2022-11-15T10:25:17;10.20;99.90
12815;DHT22;6472;52.328;13.070;2022-11-15T10:27:54;10.30;99.90
12815;DHT22;6472;52.328;13.070;2022-11-15T10:30:32;10.30;99.90
12815;DHT22;6472;52.328;13.070;2022-11-15T10:33:13;10.30;99.90
12815;DHT22;6472;52.328;13.070;2022-11-15T10:35:45;10.40;99.90
12815;DHT22;6472;52.328;13.070;2022-11-15T10:38:13;10.60;99.90
12815;DHT22;6472;52.328;13.070;2022-11-15T10:40:41;10.50;99.90
12815;DHT22;6472;52.328;13.070;2022-11-15T10:43:17;10.60;99.90
12815;DHT22;6472;52.328;13.070;2022-11-15T10:45:47;10.60;99.90
12815;DHT22;6472;52.328;13.070;2022-11-15T10:48:22;10.70;99.90
12815;DHT22;6472;52.328;13.070;2022-11-15T10:50:52;10.60;99.90
12815;DHT22;6472;52.328;13.070;2022-11-15T10:53:29;10.70;99.90
12815;DHT22;6472;52.328;13.070;2022-11-15T10:56:02;10.60;99.90
12815;DHT22;6472;52.328;13.070;2022-11-15T10:58:35;10.60;99.90
12815;DHT22;6472;52.328;13.070;2022-11-15T11:01:16;10.60;99.90
12815;DHT22;6472;52.328;13.070;2022-11-15T11:03:45;10.50;99.90
12815;DHT22;6472;52.328;13.070;2022-11-15T11:06:25;10.60;99.90
12815;DHT22;6472;52.328;13.070;2022-11-15T11:08:58;10.70;99.90
12815;DHT22;6472;52.328;13.070;2022-11-15T11:11:44;10.70;99.90
12815;DHT22;6472;52.328;13.070;2022-11-15T11:14:17;10.70;99.90
12815;DHT22;6472;52.328;13.070;2022-11-15T11:16:50;10.80;99.90
12815;DHT22;6472;52.328;13.070;2022-11-15T11:19:46;10.80;99.90
12815;DHT22;6472;52.328;13.070;2022-11-15T11:22:22;10.80;99.90
12815;DHT22;6472;52.328;13.070;2022-11-15T11:25:04;10.90;99.90
12815;DHT22;6472;52.328;13.070;2022-11-15T11:27:45;11.00;99.90
12815;DHT22;6472;52.328;13.070;2022-11-15T11:30:29;11.10;99.90
12815;DHT22;6472;52.328;13.070;2022-11-15T11:33:14;11.20;99.90
12815;DHT22;6472;52.328;13.070;2022-11-15T11:35:54;11.30;99.90
12815;DHT22;6472;52.328;13.070;2022-11-15T11:38:36;11.30;99.90
12815;DHT22;6472;52.328;13.070;2022-11-15T11:41:13;11.40;99.90
12815;DHT22;6472;52.328;13.070;2022-11-15T11:43:52;11.40;99.90
12815;DHT22;6472;52.328;13.070;2022-11-15T11:46:47;11.40;99.90
12815;DHT22;6472;52.328;13.070;2022-11-15T11:49:20;11.50;99.90
12815;DHT22;6472;52.328;13.070;2022-11-15T11:51:54;11.40;99.90
12815;DHT22;6472;52.328;13.070;2022-11-15T11:54:28;11.40;99.90
12815;DHT22;6472;52.328;13.070;2022-11-15T11:57:02;11.40;99.90
12815;DHT22;6472;52.328;13.070;2022-11-15T11:59:37;11.40;99.90
12815;DHT22;6472;52.328;13.070;2022-11-15T12:02:14;11.40;99.90
12815;DHT22;6472;52.328;13.070;2022-11-15T12:04:49;11.40;99.90
12815;DHT22;6472;52.328;13.070;2022-11-15T12:07:21;11.40;99.90
12815;DHT22;6472;52.328;13.070;2022-11-15T12:09:55;11.50;99.90
12815;DHT22;6472;52.328;13.070;2022-11-15T12:12:31;11.50;99.90
12815;DHT22;6472;52.328;13.070;2022-11-15T12:15:04;11.60;99.90
12815;DHT22;6472;52.328;13.070;2022-11-15T12:17:39;11.60;99.90
12815;DHT22;6472;52.328;13.070;2022-11-15T12:20:17;11.60;99.90
12815;DHT22;6472;52.328;13.070;2022-11-15T12:22:52;11.60;99.90
12815;DHT22;6472;52.328;13.070;2022-11-15T12:25:25;11.60;99.90
12815;DHT22;6472;52.328;13.070;2022-11-15T12:27:59;11.50;99.90
12815;DHT22;6472;52.328;13.070;2022-11-15T12:30:40;11.50;99.90
12815;DHT22;6472;52.328;13.070;2022-11-15T12:33:32;11.50;99.90
12815;DHT22;6472;52.328;13.070;2022-11-15T12:36:05;11.40;99.90
12815;DHT22;6472;52.328;13.070;2022-11-15T12:38:55;11.50;99.90
12815;DHT22;6472;52.328;13.070;2022-11-15T12:41:25;11.60;99.90
12815;DHT22;6472;52.328;13.070;2022-11-15T12:43:54;11.60;99.90
12815;DHT22;6472;52.328;13.070;2022-11-15T12:47:00;11.70;99.90
12815;DHT22;6472;52.328;13.070;2022-11-15T12:49:45;11.80;99.90
12815;DHT22;6472;52.328;13.070;2022-11-15T12:52:15;11.80;99.90
12815;DHT22;6472;52.328;13.070;2022-11-15T12:55:02;11.80;99.90
12815;DHT22;6472;52.328;13.070;2022-11-15T12:57:38;11.80;99.90
12815;DHT22;6472;52.328;13.070;2022-11-15T13:03:26;11.70;99.90
12815;DHT22;6472;52.328;13.070;2022-11-15T13:06:09;11.70;99.90
12815;DHT22;6472;52.328;13.070;2022-11-15T13:08:42;11.70;99.90
12815;DHT22;6472;52.328;13.070;2022-11-15T13:14:45;11.70;99.90
12815;DHT22;6472;52.328;13.070;2022-11-15T13:17:33;11.60;99.90
12815;DHT22;6472;52.328;13.070;2022-11-15T13:20:22;11.50;99.90
12815;DHT22;6472;52.328;13.070;2022-11-15T13:22:51;11.50;99.90
12815;DHT22;6472;52.328;13.070;2022-11-15T13:25:52;11.40;99.90
12815;DHT22;6472;52.328;13.070;2022-11-15T13:28:28;11.30;99.90
12815;DHT22;6472;52.328;13.070;2022-11-15T13:31:00;11.20;99.90
12815;DHT22;6472;52.328;13.070;2022-11-15T13:33:32;11.10;99.90
12815;DHT22;6472;52.328;13.070;2022-11-15T13:36:04;11.00;99.90
12815;DHT22;6472;52.328;13.070;2022-11-15T13:38:35;11.00;99.90
12815;DHT22;6472;52.328;13.070;2022-11-15T13:41:18;11.00;99.90
12815;DHT22;6472;52.328;13.070;2022-11-15T13:43:47;11.00;99.90
12815;DHT22;6472;52.328;13.070;2022-11-15T13:46:17;11.00;99.90
12815;DHT22;6472;52.328;13.070;2022-11-15T13:48:52;10.90;99.90
12815;DHT22;6472;52.328;13.070;2022-11-15T13:51:30;10.80;99.90
12815;DHT22;6472;52.328;13.070;2022-11-15T13:54:09;10.80;99.90
12815;DHT22;6472;52.328;13.070;2022-11-15T13:56:46;10.70;99.90
12815;DHT22;6472;52.328;13.070;2022-11-15T13:59:20;10.60;99.90
12815;DHT22;6472;52.328;13.070;2022-11-15T14:01:52;10.50;99.90
12815;DHT22;6472;52.328;13.070;2022-11-15T14:04:22;10.40;99.90
12815;DHT22;6472;52.328;13.070;2022-11-15T14:06:54;10.40;99.90
12815;DHT22;6472;52.328;13.070;2022-11-15T14:09:34;10.30;99.90
12815;DHT22;6472;52.328;13.070;2022-11-15T14:12:23;10.20;99.90
12815;DHT22;6472;52.328;13.070;2022-11-15T14:14:52;10.20;99.90
12815;DHT22;6472;52.328;13.070;2022-11-15T14:17:21;10.10;99.90
12815;DHT22;6472;52.328;13.070;2022-11-15T14:19:50;10.00;99.90
12815;DHT22;6472;52.328;13.070;2022-11-15T14:22:21;9.90;99.90
12815;DHT22;6472;52.328;13.070;2022-11-15T14:25:07;9.90;99.90
12815;DHT22;6472;52.328;13.070;2022-11-15T14:27:42;9.80;99.90
12815;DHT22;6472;52.328;13.070;2022-11-15T14:30:15;9.70;99.90
12815;DHT22;6472;52.328;13.070;2022-11-15T14:32:45;9.60;99.90
12815;DHT22;6472;52.328;13.070;2022-11-15T14:35:17;9.50;99.90
12815;DHT22;6472;52.328;13.070;2022-11-15T14:37:46;9.40;99.90
12815;DHT22;6472;52.328;13.070;2022-11-15T14:40:17;9.30;99.90
12815;DHT22;6472;52.328;13.070;2022-11-15T14:42:49;9.20;99.90
12815;DHT22;6472;52.328;13.070;2022-11-15T14:45:19;9.10;99.90
12815;DHT22;6472;52.328;13.070;2022-11-15T14:47:47;9.10;99.90
12815;DHT22;6472;52.328;13.070;2022-11-15T14:50:18;9.00;99.90
12815;DHT22;6472;52.328;13.070;2022-11-15T14:52:46;8.90;99.90
12815;DHT22;6472;52.328;13.070;2022-11-15T14:55:18;8.80;99.90
12815;DHT22;6472;52.328;13.070;2022-11-15T14:57:49;8.70;99.90
12815;DHT22;6472;52.328;13.070;2022-11-15T15:00:17;8.60;99.90
12815;DHT22;6472;52.328;13.070;2022-11-15T15:02:47;8.50;99.90
12815;DHT22;6472;52.328;13.070;2022-11-15T15:05:17;8.40;99.90
12815;DHT22;6472;52.328;13.070;2022-11-15T15:07:46;8.30;99.90
12815;DHT22;6472;52.328;13.070;2022-11-15T15:10:16;8.20;99.90
12815;DHT22;6472;52.328;13.070;2022-11-15T15:13:06;8.10;99.90
12815;DHT22;6472;52.328;13.070;2022-11-15T15:15:37;8.00;99.90
12815;DHT22;6472;52.328;13.070;2022-11-15T15:18:06;7.90;99.90
12815;DHT22;6472;52.328;13.070;2022-11-15T15:20:35;7.90;99.90
12815;DHT22;6472;52.328;13.070;2022-11-15T15:23:04;7.80;99.90
12815;DHT22;6472;52.328;13.070;2022-11-15T15:25:34;7.70;99.90
12815;DHT22;6472;52.328;13.070;2022-11-15T15:28:02;7.70;99.90
12815;DHT22;6472;52.328;13.070;2022-11-15T15:30:32;7.60;99.90
12815;DHT22;6472;52.328;13.070;2022-11-15T15:33:00;7.50;99.90
12815;DHT22;6472;52.328;13.070;2022-11-15T15:35:30;7.50;99.90
12815;DHT22;6472;52.328;13.070;2022-11-15T15:37:59;7.40;99.90
12815;DHT22;6472;52.328;13.070;2022-11-15T15:40:29;7.30;99.90
12815;DHT22;6472;52.328;13.070;2022-11-15T15:42:57;7.30;99.90
12815;DHT22;6472;52.328;13.070;2022-11-15T15:45:26;7.20;99.90
12815;DHT22;6472;52.328;13.070;2022-11-15T15:47:56;7.10;99.90
12815;DHT22;6472;52.328;13.070;2022-11-15T15:50:25;7.00;99.90
12815;DHT22;6472;52.328;13.070;2022-11-15T15:52:55;7.00;99.90
12815;DHT22;6472;52.328;13.070;2022-11-15T15:55:24;7.00;99.90
12815;DHT22;6472;52.328;13.070;2022-11-15T15:57:52;6.90;99.90
12815;DHT22;6472;52.328;13.070;2022-11-15T16:00:21;6.90;99.90
12815;DHT22;6472;52.328;13.070;2022-11-15T16:02:51;6.80;99.90
12815;DHT22;6472;52.328;13.070;2022-11-15T16:05:21;6.80;99.90
12815;DHT22;6472;52.328;13.070;2022-11-15T16:07:50;6.70;99.90
12815;DHT22;6472;52.328;13.070;2022-11-15T16:10:22;6.60;99.90
12815;DHT22;6472;52.328;13.070;2022-11-15T16:12:52;6.60;99.90
12815;DHT22;6472;52.328;13.070;2022-11-15T16:15:22;6.60;99.90
12815;DHT22;6472;52.328;13.070;2022-11-15T16:17:51;6.50;99.90
12815;DHT22;6472;52.328;13.070;2022-11-15T16:20:32;6.50;99.90
12815;DHT22;6472;52.328;13.070;2022-11-15T16:23:02;6.40;99.90
12815;DHT22;6472;52.328;13.070;2022-11-15T16:25:38;6.30;99.90
12815;DHT22;6472;52.328;13.070;2022-11-15T16:28:18;6.30;99.90